Time;durP1;ratioP1;P1;durP2;ratioP2;P2;SDS_P1;SDS_P2;PMS_P1;PMS_P2;Temp;Humidity;BMP_temperature;BMP_pressure;BME280_temperature;BME280_humidity;BME280_pressure;Samples;Min_cycle;Max_cycle;Signal;HPM_P1;HPM_P2
2022/12/26 00:01:51;;;;;;;42.25;28.05;;;;;;;;;;5073779;28;20020;-81
2022/12/26 00:04:18;;;;;;;48.25;32.47;;;;;;;;;;5074174;28;20102;-80
2022/12/26 00:06:44;;;;;;;45.90;32.60;;;;;;;;;;5073678;28;20373;-79
2022/12/26 00:09:10;;;;;;;44.83;30.75;;;;;;;;;;5073635;28;20023;-79
2022/12/26 00:11:36;;;;;;;44.05;28.58;;;;;;;;;;5073206;28;20490;-82
2022/12/26 00:14:13;;;;;;;47.95;33.22;;;;;;;;;;5073491;28;20029;-79
2022/12/26 00:16:40;;;;;;;54.95;33.53;;;;;;;;;;5055650;28;20020;-79
2022/12/26 00:19:06;;;;;;;38.90;26.15;;;;;;;;;;5073449;28;20028;-79
2022/12/26 00:21:32;;;;;;;37.40;23.50;;;;;;;;;;5073604;28;20091;-79
2022/12/26 00:23:59;;;;;;;25.38;15.43;;;;;;;;;;5073261;28;20514;-78
2022/12/26 00:26:27;;;;;;;35.33;31.52;;;;;;;;;;5073512;28;20036;-81
2022/12/26 00:28:53;;;;;;;38.65;23.25;;;;;;;;;;5073224;28;20464;-80
2022/12/26 00:31:21;;;;;;;51.38;30.73;;;;;;;;;;5073482;28;20922;-79
2022/12/26 00:33:47;;;;;;;40.15;24.27;;;;;;;;;;5073197;28;20031;-82
2022/12/26 00:36:14;;;;;;;43.45;26.88;;;;;;;;;;5073462;28;20112;-82
2022/12/26 00:38:41;;;;;;;36.88;25.85;;;;;;;;;;5073185;28;20029;-78
2022/12/26 00:41:08;;;;;;;42.22;28.00;;;;;;;;;;5073204;28;20024;-79
2022/12/26 00:43:34;;;;;;;40.83;26.73;;;;;;;;;;5073271;28;20024;-82
2022/12/26 00:46:01;;;;;;;26.45;19.83;;;;;;;;;;5073009;28;20030;-79
2022/12/26 00:48:27;;;;;;;30.80;18.90;;;;;;;;;;5073132;28;20126;-79
2022/12/26 00:50:53;;;;;;;28.58;17.92;;;;;;;;;;5072849;28;20033;-80
2022/12/26 00:53:19;;;;;;;24.52;14.05;;;;;;;;;;5073058;28;20016;-78
2022/12/26 00:55:45;;;;;;;24.20;15.95;;;;;;;;;;5073000;28;20047;-79
2022/12/26 00:58:11;;;;;;;31.10;20.13;;;;;;;;;;5072759;28;20025;-78
2022/12/26 01:00:38;;;;;;;38.70;25.42;;;;;;;;;;5072863;28;20020;-79
2022/12/26 01:03:06;;;;;;;30.02;21.38;;;;;;;;;;5072820;28;20529;-80
2022/12/26 01:05:33;;;;;;;27.50;19.30;;;;;;;;;;5073041;28;20029;-81
2022/12/26 01:07:59;;;;;;;49.17;32.63;;;;;;;;;;5072782;28;20074;-79
2022/12/26 01:10:25;;;;;;;26.48;17.50;;;;;;;;;;5073080;28;20032;-81
2022/12/26 01:12:51;;;;;;;20.70;14.65;;;;;;;;;;5072685;28;20044;-81
2022/12/26 01:15:17;;;;;;;20.42;14.65;;;;;;;;;;5072751;28;20067;-79
2022/12/26 01:17:43;;;;;;;19.20;13.38;;;;;;;;;;5072604;28;20024;-81
2022/12/26 01:20:10;;;;;;;22.30;14.43;;;;;;;;;;5072524;28;20167;-81
2022/12/26 01:22:36;;;;;;;24.00;14.45;;;;;;;;;;5072608;28;20024;-80
2022/12/26 01:25:02;;;;;;;21.65;14.60;;;;;;;;;;5071455;28;20016;-80
2022/12/26 01:27:28;;;;;;;20.42;14.68;;;;;;;;;;5072684;28;20024;-82
2022/12/26 01:29:55;;;;;;;21.80;14.60;;;;;;;;;;5072475;28;20024;-79
2022/12/26 01:32:21;;;;;;;20.65;14.77;;;;;;;;;;5072481;28;20016;-82
2022/12/26 01:34:48;;;;;;;27.60;19.45;;;;;;;;;;5072299;28;20107;-79
2022/12/26 01:37:14;;;;;;;23.00;15.68;;;;;;;;;;5072301;28;20483;-81
2022/12/26 01:39:40;;;;;;;19.75;14.18;;;;;;;;;;5072511;28;20447;-79
2022/12/26 01:42:13;;;;;;;18.23;11.25;;;;;;;;;;5072323;28;20028;-78
2022/12/26 01:44:58;;;;;;;15.90;11.15;;;;;;;;;;5072451;28;20028;-81
2022/12/26 01:47:26;;;;;;;16.95;9.50;;;;;;;;;;5072463;28;20032;-80
2022/12/26 01:49:53;;;;;;;15.05;10.18;;;;;;;;;;5072007;28;20057;-80
2022/12/26 01:52:26;;;;;;;18.92;11.38;;;;;;;;;;5072449;28;20028;-82
2022/12/26 01:54:53;;;;;;;17.58;11.43;;;;;;;;;;5072139;28;20016;-79
2022/12/26 01:57:22;;;;;;;17.67;10.63;;;;;;;;;;5072229;28;20076;-78
2022/12/26 01:59:50;;;;;;;18.20;11.60;;;;;;;;;;5072045;28;20074;-80
2022/12/26 02:02:16;;;;;;;16.48;11.32;;;;;;;;;;5072298;28;20082;-80
2022/12/26 02:07:31;;;;;;;17.00;11.25;;;;;;;;;;5071935;28;20434;-79
2022/12/26 02:09:57;;;;;;;15.32;9.52;;;;;;;;;;5072114;28;20035;-81
2022/12/26 02:12:25;;;;;;;13.15;9.38;;;;;;;;;;5071862;28;20028;-80
2022/12/26 02:14:51;;;;;;;15.45;10.25;;;;;;;;;;5072096;28;20036;-79
2022/12/26 02:17:17;;;;;;;19.77;13.15;;;;;;;;;;5072023;28;20032;-79
2022/12/26 02:19:49;;;;;;;22.13;14.38;;;;;;;;;;5071847;28;20097;-82
2022/12/26 02:22:22;;;;;;;20.55;14.02;;;;;;;;;;5072092;28;20078;-79
2022/12/26 02:24:48;;;;;;;17.08;11.60;;;;;;;;;;5071974;28;20020;-80
2022/12/26 02:27:40;;;;;;;20.92;13.90;;;;;;;;;;5071944;28;20027;-81
2022/12/26 02:30:26;;;;;;;24.27;15.52;;;;;;;;;;5068098;28;20467;-81
2022/12/26 02:33:00;;;;;;;17.48;11.68;;;;;;;;;;5058083;28;20395;-79
2022/12/26 02:35:45;;;;;;;15.82;10.40;;;;;;;;;;5073041;28;20039;-82
2022/12/26 02:38:29;;;;;;;20.88;15.50;;;;;;;;;;5075695;28;20035;-78
2022/12/26 02:41:01;;;;;;;21.50;13.80;;;;;;;;;;5075587;28;20028;-79
2022/12/26 02:43:36;;;;;;;16.38;12.98;;;;;;;;;;5075493;28;20028;-81
2022/12/26 02:49:05;;;;;;;32.58;23.27;;;;;;;;;;5075053;28;20030;-80
2022/12/26 03:14:38;;;;;;;12.85;8.23;;;;;;;;;;5075614;28;20384;-81
2022/12/26 03:17:18;;;;;;;12.35;8.45;;;;;;;;;;5074971;28;20024;-80
2022/12/26 03:19:58;;;;;;;19.05;13.20;;;;;;;;;;5074676;28;20058;-81
2022/12/26 03:22:30;;;;;;;20.15;13.45;;;;;;;;;;5074812;28;20021;-81
2022/12/26 03:27:42;;;;;;;13.02;9.07;;;;;;;;;;5074865;28;20093;-78
2022/12/26 03:32:53;;;;;;;;;;;;;;;;;;5075333;28;20052;-78
2022/12/26 03:35:20;;;;;;;28.92;18.80;;;;;;;;;;5074754;28;20279;-80
2022/12/26 03:37:52;;;;;;;27.52;16.90;;;;;;;;;;5074476;28;20036;-79
2022/12/26 04:20:34;;;;;;;16.88;10.80;;;;;;;;;;5073802;28;20116;-81
2022/12/26 04:45:25;;;;;;;18.00;11.35;;;;;;;;;;5073586;28;20062;-81
2022/12/26 04:50:36;;;;;;;;;;;;;;;;;;5073801;28;20050;-81
2022/12/26 04:53:02;;;;;;;13.48;9.13;;;;;;;;;;5073920;28;20342;-81
2022/12/26 04:55:30;;;;;;;14.45;9.55;;;;;;;;;;5072791;28;20027;-82
2022/12/26 04:57:56;;;;;;;11.27;8.48;;;;;;;;;;5072650;28;20403;-83
2022/12/26 05:00:23;;;;;;;14.43;10.45;;;;;;;;;;5074980;28;20032;-83
2022/12/26 05:11:21;;;;;;;13.43;9.00;;;;;;;;;;5092883;28;20039;-82
2022/12/26 05:13:47;;;;;;;13.68;9.65;;;;;;;;;;5093180;28;20035;-82
2022/12/26 05:30:05;;;;;;;74.93;40.55;;;;;;;;;;5075255;28;20086;-82
2022/12/26 05:35:16;;;;;;;34.88;24.15;;;;;;;;;;5073596;28;20395;-81
2022/12/26 05:37:42;;;;;;;35.22;25.75;;;;;;;;;;5093022;28;20081;-81
2022/12/26 05:40:08;;;;;;;36.95;25.52;;;;;;;;;;5074641;28;20368;-81
2022/12/26 05:42:34;;;;;;;35.17;24.83;;;;;;;;;;5074626;28;20021;-81
2022/12/26 05:45:00;;;;;;;54.00;33.40;;;;;;;;;;5055347;28;20032;-81
2022/12/26 05:47:26;;;;;;;45.30;31.08;;;;;;;;;;5083342;28;20082;-81
2022/12/26 05:49:53;;;;;;;37.70;30.50;;;;;;;;;;5068027;28;20094;-81
2022/12/26 05:52:19;;;;;;;80.00;53.72;;;;;;;;;;5072842;28;20021;-81
2022/12/26 05:54:45;;;;;;;76.35;53.20;;;;;;;;;;5072428;28;20025;-81
2022/12/26 05:57:11;;;;;;;80.80;54.45;;;;;;;;;;5072097;28;20038;-81
2022/12/26 05:59:37;;;;;;;60.65;45.55;;;;;;;;;;5071558;28;20855;-80
2022/12/26 06:02:03;;;;;;;55.83;39.03;;;;;;;;;;5071921;28;20036;-80
2022/12/26 06:04:29;;;;;;;64.53;42.17;;;;;;;;;;5071070;28;20020;-80
2022/12/26 06:06:55;;;;;;;79.15;51.58;;;;;;;;;;5072140;28;20036;-81
2022/12/26 06:09:25;;;;;;;49.08;33.97;;;;;;;;;;5071508;28;20021;-82
2022/12/26 06:11:51;;;;;;;38.55;26.35;;;;;;;;;;5057700;28;20052;-81
2022/12/26 06:14:17;;;;;;;50.42;32.95;;;;;;;;;;5058034;28;20027;-81
2022/12/26 06:16:43;;;;;;;53.28;34.30;;;;;;;;;;5075872;28;20024;-81
2022/12/26 06:19:09;;;;;;;74.25;49.17;;;;;;;;;;5074342;28;20052;-81
2022/12/26 06:21:36;;;;;;;65.50;41.42;;;;;;;;;;5075118;28;20028;-81
2022/12/26 06:24:02;;;;;;;72.80;44.50;;;;;;;;;;5074676;28;20052;-80
2022/12/26 06:26:28;;;;;;;80.63;49.67;;;;;;;;;;5073961;28;20038;-81
2022/12/26 06:28:54;;;;;;;80.68;50.88;;;;;;;;;;5070779;28;20032;-81
2022/12/26 06:31:21;;;;;;;59.50;39.67;;;;;;;;;;5073313;28;20082;-80
2022/12/26 06:33:48;;;;;;;53.80;35.67;;;;;;;;;;5074146;28;20029;-86
